sensor_id;sensor_type;location;lat;lon;timestamp;P1;durP1;ratioP1;P2;durP2;ratioP2
22614;SDS011;11474;50.790;0.298;2023-12-14T00:01:26;4.87;;;2.10;;
22614;SDS011;11474;50.790;0.298;2023-12-14T00:03:52;6.35;;;2.10;;
22614;SDS011;11474;50.790;0.298;2023-12-14T00:06:18;8.25;;;2.13;;
22614;SDS011;11474;50.790;0.298;2023-12-14T00:08:44;8.77;;;2.47;;
22614;SDS011;11474;50.790;0.298;2023-12-14T00:11:11;7.88;;;2.30;;
22614;SDS011;11474;50.790;0.298;2023-12-14T00:13:37;5.95;;;2.00;;
22614;SDS011;11474;50.790;0.298;2023-12-14T00:16:04;8.07;;;2.40;;
22614;SDS011;11474;50.790;0.298;2023-12-14T00:18:30;7.18;;;2.45;;
22614;SDS011;11474;50.790;0.298;2023-12-14T00:20:56;10.07;;;2.72;;
22614;SDS011;11474;50.790;0.298;2023-12-14T00:23:22;7.57;;;2.40;;
22614;SDS011;11474;50.790;0.298;2023-12-14T00:25:49;10.77;;;2.63;;
22614;SDS011;11474;50.790;0.298;2023-12-14T00:28:15;8.05;;;2.42;;
22614;SDS011;11474;50.790;0.298;2023-12-14T00:30:41;12.23;;;3.00;;
22614;SDS011;11474;50.790;0.298;2023-12-14T00:33:08;9.25;;;2.28;;
22614;SDS011;11474;50.790;0.298;2023-12-14T00:35:34;12.40;;;2.58;;
22614;SDS011;11474;50.790;0.298;2023-12-14T00:38:00;10.00;;;2.73;;
22614;SDS011;11474;50.790;0.298;2023-12-14T00:40:26;8.65;;;2.63;;
22614;SDS011;11474;50.790;0.298;2023-12-14T00:42:52;7.53;;;2.70;;
22614;SDS011;11474;50.790;0.298;2023-12-14T00:45:18;6.87;;;2.30;;
22614;SDS011;11474;50.790;0.298;2023-12-14T00:47:44;9.52;;;2.50;;
22614;SDS011;11474;50.790;0.298;2023-12-14T00:50:11;8.82;;;2.22;;
22614;SDS011;11474;50.790;0.298;2023-12-14T00:52:37;10.67;;;2.70;;
22614;SDS011;11474;50.790;0.298;2023-12-14T00:55:03;8.68;;;2.83;;
22614;SDS011;11474;50.790;0.298;2023-12-14T00:57:29;8.38;;;2.63;;
22614;SDS011;11474;50.790;0.298;2023-12-14T00:59:55;9.80;;;2.80;;
22614;SDS011;11474;50.790;0.298;2023-12-14T01:02:21;9.45;;;2.67;;
22614;SDS011;11474;50.790;0.298;2023-12-14T01:04:47;9.68;;;3.17;;
22614;SDS011;11474;50.790;0.298;2023-12-14T01:07:13;10.57;;;3.00;;
22614;SDS011;11474;50.790;0.298;2023-12-14T01:09:39;10.88;;;3.35;;
22614;SDS011;11474;50.790;0.298;2023-12-14T01:12:06;8.18;;;3.10;;
22614;SDS011;11474;50.790;0.298;2023-12-14T01:14:32;10.85;;;3.50;;
22614;SDS011;11474;50.790;0.298;2023-12-14T01:16:59;11.10;;;3.50;;
22614;SDS011;11474;50.790;0.298;2023-12-14T01:19:25;8.07;;;3.90;;
22614;SDS011;11474;50.790;0.298;2023-12-14T01:21:51;9.77;;;3.17;;
22614;SDS011;11474;50.790;0.298;2023-12-14T01:24:17;15.15;;;3.80;;
22614;SDS011;11474;50.790;0.298;2023-12-14T01:26:43;10.90;;;3.72;;
22614;SDS011;11474;50.790;0.298;2023-12-14T01:29:10;12.98;;;4.30;;
22614;SDS011;11474;50.790;0.298;2023-12-14T01:31:36;8.38;;;3.60;;
22614;SDS011;11474;50.790;0.298;2023-12-14T01:34:02;11.37;;;3.70;;
22614;SDS011;11474;50.790;0.298;2023-12-14T01:36:28;12.32;;;3.72;;
22614;SDS011;11474;50.790;0.298;2023-12-14T01:38:54;13.60;;;3.95;;
22614;SDS011;11474;50.790;0.298;2023-12-14T01:41:20;9.60;;;3.50;;
22614;SDS011;11474;50.790;0.298;2023-12-14T01:43:46;10.60;;;4.45;;
22614;SDS011;11474;50.790;0.298;2023-12-14T01:46:13;8.20;;;3.55;;
22614;SDS011;11474;50.790;0.298;2023-12-14T01:48:40;10.23;;;3.33;;
22614;SDS011;11474;50.790;0.298;2023-12-14T01:51:06;12.73;;;3.20;;
22614;SDS011;11474;50.790;0.298;2023-12-14T01:53:33;8.30;;;3.30;;
22614;SDS011;11474;50.790;0.298;2023-12-14T01:55:59;11.70;;;3.30;;
22614;SDS011;11474;50.790;0.298;2023-12-14T01:58:25;12.27;;;3.45;;
22614;SDS011;11474;50.790;0.298;2023-12-14T02:00:54;12.30;;;3.25;;
22614;SDS011;11474;50.790;0.298;2023-12-14T02:03:22;7.28;;;3.20;;
22614;SDS011;11474;50.790;0.298;2023-12-14T02:05:48;13.23;;;3.92;;
22614;SDS011;11474;50.790;0.298;2023-12-14T02:08:14;13.20;;;3.78;;
22614;SDS011;11474;50.790;0.298;2023-12-14T02:10:40;13.32;;;3.92;;
22614;SDS011;11474;50.790;0.298;2023-12-14T02:13:06;15.53;;;4.93;;
22614;SDS011;11474;50.790;0.298;2023-12-14T02:15:32;9.90;;;3.58;;
22614;SDS011;11474;50.790;0.298;2023-12-14T02:17:58;10.23;;;4.00;;
22614;SDS011;11474;50.790;0.298;2023-12-14T02:20:24;10.55;;;4.00;;
22614;SDS011;11474;50.790;0.298;2023-12-14T02:22:51;15.00;;;4.43;;
22614;SDS011;11474;50.790;0.298;2023-12-14T02:25:18;12.17;;;4.70;;
22614;SDS011;11474;50.790;0.298;2023-12-14T02:27:44;13.77;;;4.40;;
22614;SDS011;11474;50.790;0.298;2023-12-14T02:30:10;9.65;;;4.50;;
22614;SDS011;11474;50.790;0.298;2023-12-14T02:32:37;15.98;;;4.85;;
22614;SDS011;11474;50.790;0.298;2023-12-14T02:35:03;14.40;;;4.47;;
22614;SDS011;11474;50.790;0.298;2023-12-14T02:37:29;15.40;;;5.10;;
22614;SDS011;11474;50.790;0.298;2023-12-14T02:39:56;15.77;;;4.95;;
22614;SDS011;11474;50.790;0.298;2023-12-14T02:42:22;13.63;;;4.45;;
22614;SDS011;11474;50.790;0.298;2023-12-14T02:44:49;15.88;;;5.38;;
22614;SDS011;11474;50.790;0.298;2023-12-14T02:47:15;16.77;;;5.03;;
22614;SDS011;11474;50.790;0.298;2023-12-14T02:49:42;15.15;;;4.68;;
22614;SDS011;11474;50.790;0.298;2023-12-14T02:52:08;16.52;;;4.80;;
22614;SDS011;11474;50.790;0.298;2023-12-14T02:54:34;14.13;;;4.70;;
22614;SDS011;11474;50.790;0.298;2023-12-14T02:57:00;13.20;;;4.40;;
22614;SDS011;11474;50.790;0.298;2023-12-14T02:59:26;14.85;;;4.60;;
22614;SDS011;11474;50.790;0.298;2023-12-14T03:01:52;12.55;;;4.53;;
22614;SDS011;11474;50.790;0.298;2023-12-14T03:04:18;11.93;;;4.60;;
22614;SDS011;11474;50.790;0.298;2023-12-14T03:06:44;13.65;;;4.35;;
22614;SDS011;11474;50.790;0.298;2023-12-14T03:09:11;14.30;;;4.55;;
22614;SDS011;11474;50.790;0.298;2023-12-14T03:11:37;12.57;;;4.27;;
22614;SDS011;11474;50.790;0.298;2023-12-14T03:14:03;14.77;;;4.38;;
22614;SDS011;11474;50.790;0.298;2023-12-14T03:16:29;14.05;;;4.60;;
22614;SDS011;11474;50.790;0.298;2023-12-14T03:18:55;16.70;;;4.43;;
22614;SDS011;11474;50.790;0.298;2023-12-14T03:21:22;14.70;;;4.82;;
22614;SDS011;11474;50.790;0.298;2023-12-14T03:23:49;13.68;;;4.63;;
22614;SDS011;11474;50.790;0.298;2023-12-14T03:26:15;16.42;;;4.60;;
22614;SDS011;11474;50.790;0.298;2023-12-14T03:28:41;17.77;;;5.65;;
22614;SDS011;11474;50.790;0.298;2023-12-14T03:31:07;12.88;;;4.43;;
22614;SDS011;11474;50.790;0.298;2023-12-14T03:33:36;11.95;;;4.68;;
22614;SDS011;11474;50.790;0.298;2023-12-14T03:36:02;14.40;;;5.20;;
22614;SDS011;11474;50.790;0.298;2023-12-14T03:38:28;16.20;;;4.95;;
22614;SDS011;11474;50.790;0.298;2023-12-14T03:40:54;14.60;;;4.93;;
22614;SDS011;11474;50.790;0.298;2023-12-14T03:43:20;15.27;;;4.85;;
22614;SDS011;11474;50.790;0.298;2023-12-14T03:45:47;13.48;;;4.75;;
22614;SDS011;11474;50.790;0.298;2023-12-14T03:48:13;13.60;;;4.72;;
22614;SDS011;11474;50.790;0.298;2023-12-14T03:50:39;14.35;;;4.90;;
22614;SDS011;11474;50.790;0.298;2023-12-14T03:53:08;16.33;;;5.22;;
22614;SDS011;11474;50.790;0.298;2023-12-14T03:55:34;14.88;;;5.13;;
22614;SDS011;11474;50.790;0.298;2023-12-14T03:58:00;16.50;;;5.10;;
22614;SDS011;11474;50.790;0.298;2023-12-14T04:00:26;12.55;;;4.63;;
22614;SDS011;11474;50.790;0.298;2023-12-14T04:02:52;15.18;;;4.80;;
22614;SDS011;11474;50.790;0.298;2023-12-14T04:05:18;15.38;;;5.00;;
22614;SDS011;11474;50.790;0.298;2023-12-14T04:07:44;14.43;;;5.38;;
22614;SDS011;11474;50.790;0.298;2023-12-14T04:10:11;14.23;;;5.38;;
22614;SDS011;11474;50.790;0.298;2023-12-14T04:12:37;14.97;;;4.90;;
22614;SDS011;11474;50.790;0.298;2023-12-14T04:15:04;13.18;;;5.15;;
22614;SDS011;11474;50.790;0.298;2023-12-14T04:17:30;16.02;;;4.90;;
22614;SDS011;11474;50.790;0.298;2023-12-14T04:19:57;12.95;;;4.95;;
22614;SDS011;11474;50.790;0.298;2023-12-14T04:22:23;14.98;;;4.78;;
22614;SDS011;11474;50.790;0.298;2023-12-14T04:24:50;14.00;;;5.33;;
22614;SDS011;11474;50.790;0.298;2023-12-14T04:27:16;15.02;;;5.50;;
22614;SDS011;11474;50.790;0.298;2023-12-14T04:29:42;13.75;;;5.32;;
22614;SDS011;11474;50.790;0.298;2023-12-14T04:32:08;16.85;;;5.18;;
22614;SDS011;11474;50.790;0.298;2023-12-14T04:34:35;14.40;;;5.50;;
22614;SDS011;11474;50.790;0.298;2023-12-14T04:37:01;17.08;;;6.50;;
22614;SDS011;11474;50.790;0.298;2023-12-14T04:39:27;19.65;;;6.50;;
22614;SDS011;11474;50.790;0.298;2023-12-14T04:41:53;16.08;;;5.55;;
22614;SDS011;11474;50.790;0.298;2023-12-14T04:44:20;14.88;;;5.93;;
22614;SDS011;11474;50.790;0.298;2023-12-14T04:46:46;15.85;;;5.57;;
22614;SDS011;11474;50.790;0.298;2023-12-14T04:49:12;20.85;;;5.78;;
22614;SDS011;11474;50.790;0.298;2023-12-14T04:51:39;17.13;;;5.45;;
22614;SDS011;11474;50.790;0.298;2023-12-14T04:54:05;13.45;;;5.50;;
22614;SDS011;11474;50.790;0.298;2023-12-14T04:56:31;12.82;;;5.30;;
22614;SDS011;11474;50.790;0.298;2023-12-14T04:58:57;17.73;;;6.00;;
22614;SDS011;11474;50.790;0.298;2023-12-14T05:01:23;14.32;;;5.25;;
22614;SDS011;11474;50.790;0.298;2023-12-14T05:03:53;16.10;;;5.40;;
22614;SDS011;11474;50.790;0.298;2023-12-14T05:06:20;14.43;;;5.50;;
22614;SDS011;11474;50.790;0.298;2023-12-14T05:08:46;15.20;;;4.82;;
22614;SDS011;11474;50.790;0.298;2023-12-14T05:11:12;14.82;;;4.97;;
22614;SDS011;11474;50.790;0.298;2023-12-14T05:13:38;18.15;;;5.30;;
22614;SDS011;11474;50.790;0.298;2023-12-14T05:16:05;17.15;;;5.47;;
22614;SDS011;11474;50.790;0.298;2023-12-14T05:18:31;12.18;;;4.88;;
22614;SDS011;11474;50.790;0.298;2023-12-14T05:20:57;15.65;;;5.25;;
22614;SDS011;11474;50.790;0.298;2023-12-14T05:23:23;15.70;;;4.82;;
22614;SDS011;11474;50.790;0.298;2023-12-14T05:25:49;15.70;;;5.32;;
22614;SDS011;11474;50.790;0.298;2023-12-14T05:28:15;17.02;;;5.35;;
22614;SDS011;11474;50.790;0.298;2023-12-14T05:30:42;15.30;;;4.90;;
22614;SDS011;11474;50.790;0.298;2023-12-14T05:33:08;11.82;;;4.40;;
22614;SDS011;11474;50.790;0.298;2023-12-14T05:35:34;12.70;;;4.40;;
22614;SDS011;11474;50.790;0.298;2023-12-14T05:38:00;16.73;;;4.70;;
22614;SDS011;11474;50.790;0.298;2023-12-14T05:40:26;12.43;;;4.13;;
22614;SDS011;11474;50.790;0.298;2023-12-14T05:42:52;13.80;;;3.90;;
22614;SDS011;11474;50.790;0.298;2023-12-14T05:45:18;17.48;;;4.32;;
22614;SDS011;11474;50.790;0.298;2023-12-14T05:47:44;13.10;;;3.85;;
22614;SDS011;11474;50.790;0.298;2023-12-14T05:50:10;14.93;;;4.03;;
22614;SDS011;11474;50.790;0.298;2023-12-14T05:52:37;13.38;;;3.85;;
22614;SDS011;11474;50.790;0.298;2023-12-14T05:55:07;12.85;;;3.70;;
22614;SDS011;11474;50.790;0.298;2023-12-14T05:57:33;10.80;;;3.53;;
22614;SDS011;11474;50.790;0.298;2023-12-14T05:59:59;11.82;;;3.65;;
22614;SDS011;11474;50.790;0.298;2023-12-14T06:02:25;11.10;;;3.50;;
22614;SDS011;11474;50.790;0.298;2023-12-14T06:04:51;13.65;;;3.90;;
22614;SDS011;11474;50.790;0.298;2023-12-14T06:07:18;9.43;;;3.30;;
22614;SDS011;11474;50.790;0.298;2023-12-14T06:09:44;11.45;;;3.60;;
22614;SDS011;11474;50.790;0.298;2023-12-14T06:12:10;13.15;;;3.53;;
22614;SDS011;11474;50.790;0.298;2023-12-14T06:14:36;13.98;;;4.03;;
22614;SDS011;11474;50.790;0.298;2023-12-14T06:17:02;9.07;;;3.63;;
22614;SDS011;11474;50.790;0.298;2023-12-14T06:19:28;10.52;;;3.55;;
22614;SDS011;11474;50.790;0.298;2023-12-14T06:21:54;13.27;;;4.20;;
22614;SDS011;11474;50.790;0.298;2023-12-14T06:24:21;11.93;;;3.42;;
22614;SDS011;11474;50.790;0.298;2023-12-14T06:26:47;12.48;;;3.88;;
22614;SDS011;11474;50.790;0.298;2023-12-14T06:29:13;12.70;;;3.80;;
22614;SDS011;11474;50.790;0.298;2023-12-14T06:31:39;12.30;;;3.95;;
22614;SDS011;11474;50.790;0.298;2023-12-14T06:34:05;12.27;;;3.80;;
22614;SDS011;11474;50.790;0.298;2023-12-14T06:36:32;11.82;;;3.92;;
22614;SDS011;11474;50.790;0.298;2023-12-14T06:38:58;10.55;;;3.53;;
22614;SDS011;11474;50.790;0.298;2023-12-14T06:41:25;10.23;;;3.30;;
22614;SDS011;11474;50.790;0.298;2023-12-14T06:43:51;10.70;;;3.80;;
22614;SDS011;11474;50.790;0.298;2023-12-14T06:46:18;12.40;;;3.35;;
22614;SDS011;11474;50.790;0.298;2023-12-14T06:48:44;14.05;;;4.10;;
22614;SDS011;11474;50.790;0.298;2023-12-14T06:51:10;14.77;;;3.78;;
22614;SDS011;11474;50.790;0.298;2023-12-14T06:53:39;11.48;;;3.63;;
22614;SDS011;11474;50.790;0.298;2023-12-14T06:56:05;11.18;;;3.95;;
22614;SDS011;11474;50.790;0.298;2023-12-14T06:58:35;8.70;;;3.60;;
22614;SDS011;11474;50.790;0.298;2023-12-14T07:01:01;13.00;;;4.43;;
22614;SDS011;11474;50.790;0.298;2023-12-14T07:03:27;13.70;;;4.18;;
22614;SDS011;11474;50.790;0.298;2023-12-14T07:05:53;14.07;;;4.30;;
22614;SDS011;11474;50.790;0.298;2023-12-14T07:08:19;12.73;;;3.97;;
22614;SDS011;11474;50.790;0.298;2023-12-14T07:10:45;14.45;;;4.13;;
22614;SDS011;11474;50.790;0.298;2023-12-14T07:13:11;11.05;;;4.07;;
22614;SDS011;11474;50.790;0.298;2023-12-14T07:15:37;13.88;;;4.38;;
22614;SDS011;11474;50.790;0.298;2023-12-14T07:18:03;15.23;;;4.15;;
22614;SDS011;11474;50.790;0.298;2023-12-14T07:20:29;13.75;;;4.00;;
22614;SDS011;11474;50.790;0.298;2023-12-14T07:22:55;11.32;;;3.72;;
22614;SDS011;11474;50.790;0.298;2023-12-14T07:25:22;13.45;;;4.45;;
22614;SDS011;11474;50.790;0.298;2023-12-14T07:27:48;13.68;;;4.05;;
22614;SDS011;11474;50.790;0.298;2023-12-14T07:30:14;13.85;;;3.90;;
22614;SDS011;11474;50.790;0.298;2023-12-14T07:32:40;11.45;;;3.45;;
22614;SDS011;11474;50.790;0.298;2023-12-14T07:35:06;11.13;;;3.63;;
22614;SDS011;11474;50.790;0.298;2023-12-14T07:37:33;10.85;;;3.92;;
22614;SDS011;11474;50.790;0.298;2023-12-14T07:39:59;11.43;;;3.70;;
22614;SDS011;11474;50.790;0.298;2023-12-14T07:42:25;12.52;;;3.85;;
22614;SDS011;11474;50.790;0.298;2023-12-14T07:44:51;10.68;;;3.50;;
22614;SDS011;11474;50.790;0.298;2023-12-14T07:47:19;12.50;;;3.90;;
22614;SDS011;11474;50.790;0.298;2023-12-14T07:49:45;13.65;;;3.67;;
22614;SDS011;11474;50.790;0.298;2023-12-14T07:52:11;13.50;;;4.07;;
22614;SDS011;11474;50.790;0.298;2023-12-14T07:54:39;14.70;;;4.35;;
22614;SDS011;11474;50.790;0.298;2023-12-14T07:57:05;10.35;;;3.90;;
22614;SDS011;11474;50.790;0.298;2023-12-14T07:59:31;13.80;;;4.20;;
22614;SDS011;11474;50.790;0.298;2023-12-14T08:01:57;14.30;;;4.10;;
22614;SDS011;11474;50.790;0.298;2023-12-14T08:04:23;13.65;;;4.00;;
22614;SDS011;11474;50.790;0.298;2023-12-14T08:06:50;16.27;;;4.30;;
22614;SDS011;11474;50.790;0.298;2023-12-14T08:09:16;12.82;;;4.32;;
22614;SDS011;11474;50.790;0.298;2023-12-14T08:11:42;13.27;;;4.63;;
22614;SDS011;11474;50.790;0.298;2023-12-14T08:14:08;10.45;;;3.97;;
22614;SDS011;11474;50.790;0.298;2023-12-14T08:16:34;17.53;;;4.67;;
22614;SDS011;11474;50.790;0.298;2023-12-14T08:19:01;15.75;;;4.28;;
22614;SDS011;11474;50.790;0.298;2023-12-14T08:21:27;16.63;;;5.20;;
22614;SDS011;11474;50.790;0.298;2023-12-14T08:23:53;17.63;;;4.18;;
22614;SDS011;11474;50.790;0.298;2023-12-14T08:26:19;16.45;;;4.57;;
22614;SDS011;11474;50.790;0.298;2023-12-14T08:28:46;17.87;;;4.03;;
22614;SDS011;11474;50.790;0.298;2023-12-14T08:31:12;14.07;;;4.37;;
22614;SDS011;11474;50.790;0.298;2023-12-14T08:33:40;14.38;;;3.97;;
22614;SDS011;11474;50.790;0.298;2023-12-14T08:36:07;12.43;;;4.10;;
22614;SDS011;11474;50.790;0.298;2023-12-14T08:38:34;14.55;;;4.53;;
22614;SDS011;11474;50.790;0.298;2023-12-14T08:41:00;13.33;;;4.10;;
22614;SDS011;11474;50.790;0.298;2023-12-14T08:43:26;12.18;;;4.43;;
22614;SDS011;11474;50.790;0.298;2023-12-14T08:45:52;15.85;;;4.43;;
22614;SDS011;11474;50.790;0.298;2023-12-14T08:48:18;15.07;;;4.10;;
22614;SDS011;11474;50.790;0.298;2023-12-14T08:50:44;16.60;;;4.00;;
22614;SDS011;11474;50.790;0.298;2023-12-14T08:53:10;14.02;;;3.88;;
22614;SDS011;11474;50.790;0.298;2023-12-14T08:55:36;13.80;;;4.30;;
22614;SDS011;11474;50.790;0.298;2023-12-14T08:58:03;9.87;;;3.83;;
22614;SDS011;11474;50.790;0.298;2023-12-14T09:00:29;13.02;;;3.70;;
22614;SDS011;11474;50.790;0.298;2023-12-14T09:02:55;11.40;;;3.92;;
22614;SDS011;11474;50.790;0.298;2023-12-14T09:05:21;14.37;;;3.90;;
22614;SDS011;11474;50.790;0.298;2023-12-14T09:07:47;12.82;;;4.10;;
22614;SDS011;11474;50.790;0.298;2023-12-14T09:10:13;14.63;;;3.88;;
22614;SDS011;11474;50.790;0.298;2023-12-14T09:12:39;10.93;;;3.70;;
22614;SDS011;11474;50.790;0.298;2023-12-14T09:15:05;10.35;;;3.78;;
22614;SDS011;11474;50.790;0.298;2023-12-14T09:17:32;12.13;;;4.10;;
22614;SDS011;11474;50.790;0.298;2023-12-14T09:19:58;13.52;;;4.15;;
22614;SDS011;11474;50.790;0.298;2023-12-14T09:22:24;12.10;;;3.70;;
22614;SDS011;11474;50.790;0.298;2023-12-14T09:24:51;12.80;;;3.93;;
22614;SDS011;11474;50.790;0.298;2023-12-14T09:27:17;10.07;;;3.50;;
22614;SDS011;11474;50.790;0.298;2023-12-14T09:29:43;11.40;;;3.63;;
22614;SDS011;11474;50.790;0.298;2023-12-14T09:32:09;10.75;;;3.70;;
22614;SDS011;11474;50.790;0.298;2023-12-14T09:34:35;13.88;;;4.25;;
22614;SDS011;11474;50.790;0.298;2023-12-14T09:37:02;14.07;;;3.83;;
22614;SDS011;11474;50.790;0.298;2023-12-14T09:39:28;11.50;;;3.22;;
22614;SDS011;11474;50.790;0.298;2023-12-14T09:42:01;10.27;;;3.30;;
22614;SDS011;11474;50.790;0.298;2023-12-14T09:44:29;8.18;;;3.33;;
22614;SDS011;11474;50.790;0.298;2023-12-14T09:46:55;13.00;;;3.72;;
22614;SDS011;11474;50.790;0.298;2023-12-14T09:49:22;9.45;;;3.33;;
22614;SDS011;11474;50.790;0.298;2023-12-14T09:51:49;11.00;;;4.03;;
22614;SDS011;11474;50.790;0.298;2023-12-14T09:54:16;13.85;;;3.40;;
22614;SDS011;11474;50.790;0.298;2023-12-14T09:56:46;11.75;;;3.50;;
22614;SDS011;11474;50.790;0.298;2023-12-14T09:59:12;13.02;;;3.53;;
22614;SDS011;11474;50.790;0.298;2023-12-14T10:01:39;12.00;;;3.97;;
22614;SDS011;11474;50.790;0.298;2023-12-14T10:04:08;9.38;;;3.70;;
22614;SDS011;11474;50.790;0.298;2023-12-14T10:06:35;10.65;;;3.50;;
22614;SDS011;11474;50.790;0.298;2023-12-14T10:09:02;12.75;;;3.80;;
22614;SDS011;11474;50.790;0.298;2023-12-14T10:11:29;13.48;;;3.70;;
22614;SDS011;11474;50.790;0.298;2023-12-14T10:13:55;14.47;;;3.93;;
22614;SDS011;11474;50.790;0.298;2023-12-14T10:16:31;17.55;;;4.40;;
22614;SDS011;11474;50.790;0.298;2023-12-14T10:18:58;12.88;;;3.97;;
22614;SDS011;11474;50.790;0.298;2023-12-14T10:21:27;14.68;;;3.60;;
22614;SDS011;11474;50.790;0.298;2023-12-14T10:23:56;13.68;;;4.65;;
22614;SDS011;11474;50.790;0.298;2023-12-14T10:26:23;10.05;;;3.60;;
22614;SDS011;11474;50.790;0.298;2023-12-14T10:28:52;12.98;;;3.42;;
22614;SDS011;11474;50.790;0.298;2023-12-14T10:31:18;10.43;;;2.47;;
22614;SDS011;11474;50.790;0.298;2023-12-14T10:33:46;10.77;;;2.45;;
22614;SDS011;11474;50.790;0.298;2023-12-14T10:36:13;8.55;;;2.47;;
22614;SDS011;11474;50.790;0.298;2023-12-14T10:38:39;11.00;;;2.90;;
22614;SDS011;11474;50.790;0.298;2023-12-14T10:41:06;11.32;;;2.30;;
22614;SDS011;11474;50.790;0.298;2023-12-14T10:43:34;7.88;;;2.67;;
22614;SDS011;11474;50.790;0.298;2023-12-14T10:46:03;10.18;;;2.60;;
22614;SDS011;11474;50.790;0.298;2023-12-14T10:48:30;11.27;;;2.60;;
22614;SDS011;11474;50.790;0.298;2023-12-14T10:50:56;10.93;;;2.47;;
22614;SDS011;11474;50.790;0.298;2023-12-14T10:53:26;7.45;;;2.28;;
22614;SDS011;11474;50.790;0.298;2023-12-14T10:55:52;8.77;;;2.45;;
22614;SDS011;11474;50.790;0.298;2023-12-14T10:58:19;8.25;;;2.20;;
22614;SDS011;11474;50.790;0.298;2023-12-14T11:00:58;7.40;;;2.42;;
22614;SDS011;11474;50.790;0.298;2023-12-14T11:03:26;11.70;;;2.75;;
22614;SDS011;11474;50.790;0.298;2023-12-14T11:05:52;9.73;;;2.88;;
22614;SDS011;11474;50.790;0.298;2023-12-14T11:08:18;8.45;;;2.38;;
22614;SDS011;11474;50.790;0.298;2023-12-14T11:10:54;7.18;;;2.28;;
22614;SDS011;11474;50.790;0.298;2023-12-14T11:13:20;9.85;;;2.58;;
22614;SDS011;11474;50.790;0.298;2023-12-14T11:15:47;8.57;;;2.30;;
22614;SDS011;11474;50.790;0.298;2023-12-14T11:23:12;6.18;;;2.22;;
22614;SDS011;11474;50.790;0.298;2023-12-14T11:25:42;8.90;;;2.78;;
22614;SDS011;11474;50.790;0.298;2023-12-14T11:28:08;13.68;;;2.90;;
22614;SDS011;11474;50.790;0.298;2023-12-14T11:30:37;8.40;;;2.85;;
22614;SDS011;11474;50.790;0.298;2023-12-14T11:33:03;9.13;;;2.50;;
22614;SDS011;11474;50.790;0.298;2023-12-14T11:35:29;9.65;;;2.40;;
22614;SDS011;11474;50.790;0.298;2023-12-14T11:37:56;9.30;;;2.50;;
22614;SDS011;11474;50.790;0.298;2023-12-14T11:40:24;9.82;;;2.78;;
22614;SDS011;11474;50.790;0.298;2023-12-14T11:43:01;12.90;;;3.25;;
22614;SDS011;11474;50.790;0.298;2023-12-14T11:45:32;7.07;;;2.17;;
22614;SDS011;11474;50.790;0.298;2023-12-14T11:47:58;8.53;;;2.60;;
22614;SDS011;11474;50.790;0.298;2023-12-14T11:50:24;8.88;;;2.90;;
22614;SDS011;11474;50.790;0.298;2023-12-14T11:52:50;13.20;;;3.20;;
22614;SDS011;11474;50.790;0.298;2023-12-14T11:55:17;10.00;;;2.50;;
22614;SDS011;11474;50.790;0.298;2023-12-14T11:57:46;14.25;;;3.55;;
22614;SDS011;11474;50.790;0.298;2023-12-14T12:00:13;9.25;;;2.83;;
22614;SDS011;11474;50.790;0.298;2023-12-14T12:02:39;7.95;;;2.50;;
22614;SDS011;11474;50.790;0.298;2023-12-14T12:05:06;8.77;;;2.55;;
22614;SDS011;11474;50.790;0.298;2023-12-14T12:07:32;11.18;;;2.53;;
22614;SDS011;11474;50.790;0.298;2023-12-14T12:09:59;5.90;;;2.03;;
22614;SDS011;11474;50.790;0.298;2023-12-14T12:12:25;9.40;;;2.28;;
22614;SDS011;11474;50.790;0.298;2023-12-14T12:14:51;8.77;;;2.05;;
22614;SDS011;11474;50.790;0.298;2023-12-14T12:17:19;8.77;;;1.92;;
22614;SDS011;11474;50.790;0.298;2023-12-14T12:19:45;6.40;;;1.98;;
22614;SDS011;11474;50.790;0.298;2023-12-14T12:22:11;7.55;;;2.20;;
22614;SDS011;11474;50.790;0.298;2023-12-14T12:24:37;6.28;;;2.30;;
22614;SDS011;11474;50.790;0.298;2023-12-14T12:27:03;7.93;;;2.40;;
22614;SDS011;11474;50.790;0.298;2023-12-14T12:29:30;6.35;;;2.03;;
22614;SDS011;11474;50.790;0.298;2023-12-14T12:31:56;9.32;;;2.00;;
22614;SDS011;11474;50.790;0.298;2023-12-14T12:34:22;10.40;;;2.38;;
22614;SDS011;11474;50.790;0.298;2023-12-14T12:36:48;9.05;;;2.40;;
22614;SDS011;11474;50.790;0.298;2023-12-14T12:39:14;7.85;;;2.05;;
22614;SDS011;11474;50.790;0.298;2023-12-14T12:41:40;7.65;;;2.10;;
22614;SDS011;11474;50.790;0.298;2023-12-14T12:44:07;7.53;;;2.05;;
22614;SDS011;11474;50.790;0.298;2023-12-14T12:46:34;6.95;;;2.13;;
22614;SDS011;11474;50.790;0.298;2023-12-14T12:49:01;5.78;;;1.95;;
22614;SDS011;11474;50.790;0.298;2023-12-14T12:51:27;8.63;;;2.15;;
22614;SDS011;11474;50.790;0.298;2023-12-14T12:53:55;8.25;;;2.13;;
22614;SDS011;11474;50.790;0.298;2023-12-14T12:56:22;8.32;;;2.40;;
22614;SDS011;11474;50.790;0.298;2023-12-14T12:58:49;6.70;;;2.00;;
22614;SDS011;11474;50.790;0.298;2023-12-14T13:01:17;6.17;;;1.83;;
22614;SDS011;11474;50.790;0.298;2023-12-14T13:03:43;7.85;;;1.77;;
22614;SDS011;11474;50.790;0.298;2023-12-14T13:06:09;8.77;;;2.28;;
22614;SDS011;11474;50.790;0.298;2023-12-14T13:08:35;8.60;;;1.83;;
22614;SDS011;11474;50.790;0.298;2023-12-14T13:11:01;10.55;;;2.25;;
22614;SDS011;11474;50.790;0.298;2023-12-14T13:13:27;9.40;;;2.08;;
22614;SDS011;11474;50.790;0.298;2023-12-14T13:15:54;9.18;;;2.17;;
22614;SDS011;11474;50.790;0.298;2023-12-14T13:18:21;5.95;;;2.05;;
22614;SDS011;11474;50.790;0.298;2023-12-14T13:20:47;6.72;;;2.00;;
22614;SDS011;11474;50.790;0.298;2023-12-14T13:23:13;5.63;;;1.77;;
22614;SDS011;11474;50.790;0.298;2023-12-14T13:25:39;5.93;;;1.92;;
22614;SDS011;11474;50.790;0.298;2023-12-14T13:28:05;5.38;;;1.88;;
22614;SDS011;11474;50.790;0.298;2023-12-14T13:30:31;5.13;;;1.70;;
22614;SDS011;11474;50.790;0.298;2023-12-14T13:32:57;6.15;;;1.55;;
22614;SDS011;11474;50.790;0.298;2023-12-14T13:35:24;8.27;;;1.70;;
22614;SDS011;11474;50.790;0.298;2023-12-14T13:37:50;6.03;;;1.52;;
22614;SDS011;11474;50.790;0.298;2023-12-14T13:40:16;4.38;;;1.45;;
22614;SDS011;11474;50.790;0.298;2023-12-14T13:42:43;9.18;;;1.70;;
22614;SDS011;11474;50.790;0.298;2023-12-14T13:45:09;6.70;;;1.60;;
22614;SDS011;11474;50.790;0.298;2023-12-14T13:47:35;6.30;;;1.40;;
22614;SDS011;11474;50.790;0.298;2023-12-14T13:50:01;7.40;;;1.70;;
22614;SDS011;11474;50.790;0.298;2023-12-14T13:52:29;5.57;;;1.40;;
22614;SDS011;11474;50.790;0.298;2023-12-14T13:54:55;7.40;;;1.80;;
22614;SDS011;11474;50.790;0.298;2023-12-14T13:57:24;5.03;;;1.77;;
22614;SDS011;11474;50.790;0.298;2023-12-14T13:59:50;5.45;;;1.77;;
22614;SDS011;11474;50.790;0.298;2023-12-14T14:02:16;8.55;;;1.77;;
22614;SDS011;11474;50.790;0.298;2023-12-14T14:04:42;11.73;;;2.60;;
22614;SDS011;11474;50.790;0.298;2023-12-14T14:07:08;7.28;;;2.00;;
22614;SDS011;11474;50.790;0.298;2023-12-14T14:09:34;6.97;;;3.22;;
22614;SDS011;11474;50.790;0.298;2023-12-14T14:12:00;7.22;;;2.40;;
22614;SDS011;11474;50.790;0.298;2023-12-14T14:14:29;12.77;;;3.90;;
22614;SDS011;11474;50.790;0.298;2023-12-14T14:16:55;5.93;;;2.22;;
22614;SDS011;11474;50.790;0.298;2023-12-14T14:19:21;7.33;;;2.23;;
22614;SDS011;11474;50.790;0.298;2023-12-14T14:21:47;7.13;;;2.55;;
22614;SDS011;11474;50.790;0.298;2023-12-14T14:24:13;9.73;;;2.80;;
22614;SDS011;11474;50.790;0.298;2023-12-14T14:26:39;4.43;;;2.00;;
22614;SDS011;11474;50.790;0.298;2023-12-14T14:29:06;4.88;;;1.90;;
22614;SDS011;11474;50.790;0.298;2023-12-14T14:31:36;7.03;;;2.60;;
22614;SDS011;11474;50.790;0.298;2023-12-14T14:34:02;4.43;;;2.10;;
22614;SDS011;11474;50.790;0.298;2023-12-14T14:36:30;3.10;;;1.80;;
22614;SDS011;11474;50.790;0.298;2023-12-14T14:38:56;3.47;;;1.40;;